createdAt,value
2019-02-25T00:00:53.509Z,3.96
2019-02-25T00:01:53.501Z,4.08
2019-02-25T00:02:53.486Z,4.04
2019-02-25T00:03:53.464Z,4.12
2019-02-25T00:04:53.450Z,4.02
2019-02-25T00:05:53.441Z,4.09
2019-02-25T00:06:53.416Z,4.06
2019-02-25T00:07:53.394Z,3.97
2019-02-25T00:08:53.380Z,4.04
2019-02-25T00:09:53.366Z,4.06
2019-02-25T00:10:53.346Z,4.05
2019-02-25T00:11:53.331Z,3.98
2019-02-25T00:12:53.317Z,3.98
2019-02-25T00:13:53.297Z,4.02
2019-02-25T00:14:53.283Z,4.11
2019-02-25T00:15:53.261Z,4.05
2019-02-25T00:16:53.255Z,3.91
2019-02-25T00:17:53.235Z,4.08
2019-02-25T00:18:53.230Z,4.05
2019-02-25T00:19:53.198Z,4.05
2019-02-25T00:20:53.179Z,4.02
2019-02-25T00:21:53.168Z,4.04
2019-02-25T00:22:53.150Z,3.94
2019-02-25T00:23:53.132Z,4.04
2019-02-25T00:24:53.116Z,3.96
2019-02-25T00:25:53.104Z,3.87
2019-02-25T00:26:53.085Z,3.97
2019-02-25T00:27:53.069Z,3.87
2019-02-25T00:28:53.053Z,3.88
2019-02-25T00:29:53.031Z,3.87
2019-02-25T00:30:53.012Z,3.78
2019-02-25T00:31:53.003Z,3.75
2019-02-25T00:32:52.983Z,3.62
2019-02-25T00:33:52.969Z,3.61
2019-02-25T00:34:52.952Z,3.62
2019-02-25T00:35:52.934Z,3.58
2019-02-25T00:36:52.916Z,3.69
2019-02-25T00:37:52.902Z,3.51
2019-02-25T00:38:52.880Z,3.62
2019-02-25T00:39:52.870Z,3.61
2019-02-25T00:40:52.850Z,3.61
2019-02-25T00:41:52.834Z,3.68
2019-02-25T00:42:52.817Z,3.70
2019-02-25T00:43:52.797Z,3.73
2019-02-25T00:44:52.790Z,3.75
2019-02-25T00:45:52.763Z,3.83
2019-02-25T00:46:52.754Z,3.83
2019-02-25T00:47:52.733Z,3.83
2019-02-25T00:48:52.717Z,3.84
2019-02-25T00:49:52.697Z,3.87
2019-02-25T00:50:52.684Z,3.88
2019-02-25T00:51:52.666Z,3.90
2019-02-25T00:52:52.652Z,3.88
2019-02-25T00:53:52.632Z,4.00
2019-02-25T00:54:52.618Z,3.96
2019-02-25T00:55:52.597Z,3.91
2019-02-25T00:56:52.581Z,3.91
2019-02-25T00:57:52.566Z,3.94
2019-02-25T00:58:52.550Z,3.96
2019-02-25T00:59:52.533Z,4.02
2019-02-25T01:00:52.518Z,3.97
2019-02-25T01:01:52.499Z,4.08
2019-02-25T01:02:52.482Z,4.18
2019-02-25T01:03:52.461Z,4.06
2019-02-25T01:04:52.450Z,4.22
2019-02-25T01:05:52.439Z,4.16
2019-02-25T01:06:52.414Z,4.29
2019-02-25T01:07:52.397Z,4.20
2019-02-25T01:08:52.381Z,4.27
2019-02-25T01:09:52.365Z,4.27
2019-02-25T01:10:52.347Z,4.23
2019-02-25T01:11:52.333Z,4.33
2019-02-25T01:12:52.310Z,4.27
2019-02-25T01:13:52.302Z,4.36
2019-02-25T01:14:52.284Z,4.26
2019-02-25T01:15:52.271Z,4.26
2019-02-25T01:16:52.257Z,4.26
2019-02-25T01:17:52.229Z,4.33
2019-02-25T01:18:52.217Z,4.23
2019-02-25T01:19:52.197Z,4.26
2019-02-25T01:20:52.183Z,4.29
2019-02-25T01:21:52.164Z,4.29
2019-02-25T01:22:52.147Z,4.33
2019-02-25T01:23:52.135Z,4.36
2019-02-25T01:24:52.119Z,4.36
2019-02-25T01:25:52.101Z,4.40
2019-02-25T01:26:52.166Z,4.29
2019-02-25T01:27:52.059Z,4.30
2019-02-25T01:28:52.053Z,4.34
2019-02-25T01:29:52.034Z,4.40
2019-02-25T01:30:52.021Z,4.42
2019-02-25T01:31:52.000Z,4.42
2019-02-25T01:32:51.984Z,4.34
2019-02-25T01:33:51.967Z,4.32
2019-02-25T01:34:51.949Z,4.41
2019-02-25T01:35:51.933Z,4.37
2019-02-25T01:36:51.917Z,4.41
2019-02-25T01:37:51.903Z,4.34
2019-02-25T01:38:51.884Z,4.36
2019-02-25T01:39:51.866Z,4.34
2019-02-25T01:40:51.856Z,4.37
2019-02-25T01:41:51.841Z,4.44
2019-02-25T01:42:51.822Z,4.41
2019-02-25T01:43:51.801Z,4.40
2019-02-25T01:44:51.788Z,4.40
2019-02-25T01:45:51.770Z,4.48
2019-02-25T01:46:51.750Z,4.44
2019-02-25T01:47:51.736Z,4.59
2019-02-25T01:48:51.717Z,4.51
2019-02-25T01:49:51.703Z,4.58
2019-02-25T01:50:51.685Z,4.69
2019-02-25T01:51:51.669Z,4.65
2019-02-25T01:52:51.656Z,4.69
2019-02-25T01:53:51.645Z,4.65
2019-02-25T01:54:51.621Z,4.63
2019-02-25T01:55:51.606Z,4.73
2019-02-25T01:56:51.588Z,4.72
2019-02-25T01:57:51.622Z,4.60
2019-02-25T01:58:51.557Z,4.66
2019-02-25T01:59:51.540Z,4.63
2019-02-25T02:00:51.526Z,4.63
2019-02-25T02:01:51.508Z,4.75
2019-02-25T02:02:51.489Z,4.70
2019-02-25T02:03:51.471Z,4.70
2019-02-25T02:04:51.457Z,4.66
2019-02-25T02:05:51.441Z,4.80
2019-02-25T02:06:51.419Z,4.75
2019-02-25T02:07:51.408Z,4.91
2019-02-25T02:08:51.390Z,4.80
2019-02-25T02:09:51.380Z,4.88
2019-02-25T02:10:51.364Z,4.88
2019-02-25T02:11:51.340Z,4.89
2019-02-25T02:12:51.329Z,4.92
2019-02-25T02:13:51.313Z,4.86
2019-02-25T02:14:51.292Z,4.89
2019-02-25T02:15:51.273Z,4.86
2019-02-25T02:16:51.307Z,4.86
2019-02-25T02:17:51.247Z,4.84
2019-02-25T02:18:51.232Z,4.91
2019-02-25T02:19:51.214Z,4.89
2019-02-25T02:20:51.211Z,4.86
2019-02-25T02:21:51.182Z,4.88
2019-02-25T02:22:51.164Z,4.89
2019-02-25T02:23:51.146Z,4.96
2019-02-25T02:24:51.136Z,4.82
2019-02-25T02:25:51.111Z,4.84
2019-02-25T02:26:51.097Z,4.88
2019-02-25T02:27:51.083Z,4.84
2019-02-25T02:28:51.065Z,4.92
2019-02-25T02:29:51.049Z,4.86
2019-02-25T02:30:51.041Z,4.84
2019-02-25T02:31:51.011Z,4.92
2019-02-25T02:32:50.996Z,4.89
2019-02-25T02:33:50.988Z,4.86
2019-02-25T02:34:50.970Z,4.75
2019-02-25T02:35:50.949Z,4.69
2019-02-25T02:36:50.938Z,4.89
2019-02-25T02:37:50.919Z,4.77
2019-02-25T02:38:50.904Z,4.77
2019-02-25T02:39:50.887Z,4.70
2019-02-25T02:40:50.871Z,4.80
2019-02-25T02:41:50.858Z,4.82
2019-02-25T02:42:50.840Z,4.77
2019-02-25T02:43:50.817Z,4.78
2019-02-25T02:44:50.823Z,4.80
2019-02-25T02:45:50.794Z,4.80
2019-02-25T02:46:50.770Z,4.80
2019-02-25T02:47:50.760Z,4.67
2019-02-25T02:48:50.737Z,4.73
2019-02-25T02:49:50.721Z,4.91
2019-02-25T02:50:50.702Z,5.03
2019-02-25T02:51:50.689Z,5.00
2019-02-25T02:52:50.674Z,5.13
2019-02-25T02:53:50.659Z,5.09
2019-02-25T02:54:50.642Z,5.20
2019-02-25T02:55:50.629Z,5.15
2019-02-25T02:56:50.603Z,5.20
2019-02-25T02:57:50.602Z,5.27
2019-02-25T02:58:50.573Z,5.27
2019-02-25T02:59:50.555Z,5.15
2019-02-25T03:00:50.541Z,5.17
2019-02-25T03:01:50.525Z,5.12
2019-02-25T03:02:50.513Z,5.12
2019-02-25T03:03:50.491Z,5.15
2019-02-25T03:04:50.483Z,5.15
2019-02-25T03:05:50.463Z,5.25
2019-02-25T03:06:50.452Z,5.30
2019-02-25T03:07:50.431Z,5.42
2019-02-25T03:08:50.412Z,5.22
2019-02-25T03:09:50.394Z,5.28
2019-02-25T03:10:50.379Z,5.28
2019-02-25T03:11:50.363Z,5.31
2019-02-25T03:12:50.348Z,5.30
2019-02-25T03:13:50.331Z,5.28
2019-02-25T03:14:50.314Z,5.27
2019-02-25T03:15:50.302Z,5.21
2019-02-25T03:16:50.288Z,5.24
2019-02-25T03:17:50.263Z,5.20
2019-02-25T03:18:50.252Z,5.24
2019-02-25T03:19:50.231Z,5.28
2019-02-25T03:20:50.216Z,5.27
2019-02-25T03:21:50.200Z,5.24
2019-02-25T03:22:50.183Z,5.27
2019-02-25T03:23:50.170Z,5.30
2019-02-25T03:24:50.151Z,5.27
2019-02-25T03:25:50.135Z,5.27
2019-02-25T03:26:50.119Z,5.30
2019-02-25T03:27:50.106Z,5.22
2019-02-25T03:28:50.087Z,5.20
2019-02-25T03:29:50.071Z,5.21
2019-02-25T03:30:50.088Z,5.17
2019-02-25T03:31:50.045Z,5.18
2019-02-25T03:32:50.024Z,5.12
2019-02-25T03:33:50.013Z,5.18
2019-02-25T03:34:49.990Z,5.10
2019-02-25T03:35:49.975Z,5.09
2019-02-25T03:36:49.961Z,5.02
2019-02-25T03:37:49.955Z,4.97
2019-02-25T03:38:49.921Z,4.92
2019-02-25T03:39:49.911Z,4.97
2019-02-25T03:40:49.890Z,4.89
2019-02-25T03:41:49.872Z,4.91
2019-02-25T03:42:49.858Z,4.91
2019-02-25T03:43:49.848Z,4.91
2019-02-25T03:44:49.826Z,4.88
2019-02-25T03:45:49.809Z,4.88
2019-02-25T03:46:49.795Z,4.94
2019-02-25T03:47:49.776Z,4.89
2019-02-25T03:48:49.773Z,4.88
2019-02-25T03:49:49.746Z,4.91
2019-02-25T03:50:49.732Z,4.86
2019-02-25T03:51:49.709Z,4.82
2019-02-25T03:52:49.701Z,4.88
2019-02-25T03:53:49.674Z,4.84
2019-02-25T03:54:49.667Z,4.92
2019-02-25T03:55:49.650Z,4.92
2019-02-25T03:56:49.632Z,4.92
2019-02-25T03:57:49.622Z,5.06
2019-02-25T03:58:49.599Z,5.13
2019-02-25T03:59:49.581Z,5.13
2019-02-25T04:00:49.566Z,5.30
2019-02-25T04:01:49.549Z,5.25
2019-02-25T04:02:49.533Z,5.35
2019-02-25T04:03:49.519Z,5.39
2019-02-25T04:04:49.511Z,5.35
2019-02-25T04:05:49.483Z,5.46
2019-02-25T04:06:49.469Z,5.49
2019-02-25T04:07:49.454Z,5.57
2019-02-25T04:08:49.437Z,5.57
2019-02-25T04:09:49.419Z,5.60
2019-02-25T04:10:49.405Z,5.64
2019-02-25T04:11:49.382Z,5.65
2019-02-25T04:12:49.371Z,5.64
2019-02-25T04:13:49.356Z,5.81
2019-02-25T04:14:49.344Z,5.81
2019-02-25T04:15:49.315Z,5.90
2019-02-25T04:16:49.304Z,5.89
2019-02-25T04:17:49.299Z,5.83
2019-02-25T04:18:49.274Z,5.76
2019-02-25T04:19:49.258Z,5.78
2019-02-25T04:20:49.239Z,5.76
2019-02-25T04:21:49.223Z,5.68
2019-02-25T04:22:49.209Z,5.67
2019-02-25T04:23:49.196Z,5.65
2019-02-25T04:24:49.179Z,5.65
2019-02-25T04:25:49.159Z,5.61
2019-02-25T04:26:49.141Z,5.58
2019-02-25T04:27:49.129Z,5.57
2019-02-25T04:28:49.117Z,5.67
2019-02-25T04:29:49.096Z,5.58
2019-02-25T04:30:49.080Z,5.61
2019-02-25T04:31:49.061Z,5.65
2019-02-25T04:32:49.051Z,5.67
2019-02-25T04:33:49.034Z,5.61
2019-02-25T04:34:49.021Z,5.58
2019-02-25T04:35:48.998Z,5.54
2019-02-25T04:36:48.984Z,5.61
2019-02-25T04:37:48.968Z,5.65
2019-02-25T04:38:48.952Z,5.58
2019-02-25T04:39:48.931Z,5.60
2019-02-25T04:40:48.916Z,5.60
2019-02-25T04:41:48.902Z,5.56
2019-02-25T04:42:48.886Z,5.54
2019-02-25T04:43:48.865Z,5.53
2019-02-25T04:44:48.855Z,5.56
2019-02-25T04:45:48.838Z,5.48
2019-02-25T04:46:48.820Z,5.57
2019-02-25T04:47:48.798Z,5.53
2019-02-25T04:48:48.787Z,5.58
2019-02-25T04:49:48.771Z,5.48
2019-02-25T04:50:48.757Z,5.45
2019-02-25T04:51:48.742Z,5.42
2019-02-25T04:52:48.721Z,5.43
2019-02-25T04:53:48.705Z,5.45
2019-02-25T04:54:48.694Z,5.40
2019-02-25T04:55:48.679Z,5.39
2019-02-25T04:56:48.659Z,5.35
2019-02-25T04:57:48.638Z,5.45
2019-02-25T04:58:48.628Z,5.39
2019-02-25T04:59:48.611Z,5.31
2019-02-25T05:00:48.597Z,5.36
2019-02-25T05:01:48.585Z,5.31
2019-02-25T05:02:48.564Z,5.27
2019-02-25T05:03:48.546Z,5.35
2019-02-25T05:04:48.540Z,5.39
2019-02-25T05:05:48.514Z,5.40
2019-02-25T05:06:48.494Z,5.31
2019-02-25T05:07:48.481Z,5.40
2019-02-25T05:08:48.465Z,5.38
2019-02-25T05:09:48.449Z,5.38
2019-02-25T05:10:48.430Z,5.36
2019-02-25T05:11:48.418Z,5.38
2019-02-25T05:12:48.398Z,5.33
2019-02-25T05:13:48.385Z,5.36
2019-02-25T05:14:48.373Z,5.28
2019-02-25T05:15:48.352Z,5.31
2019-02-25T05:16:48.334Z,5.27
2019-02-25T05:17:48.321Z,5.27
2019-02-25T05:18:48.301Z,5.24
2019-02-25T05:19:48.285Z,5.21
2019-02-25T05:20:48.271Z,5.24
2019-02-25T05:21:48.255Z,5.10
2019-02-25T05:22:48.238Z,5.04
2019-02-25T05:23:48.226Z,5.07
2019-02-25T05:24:48.209Z,5.06
2019-02-25T05:25:48.192Z,5.06
2019-02-25T05:26:48.176Z,5.07
2019-02-25T05:27:48.155Z,5.07
2019-02-25T05:28:48.140Z,5.03
2019-02-25T05:29:48.125Z,5.00
2019-02-25T05:30:48.107Z,5.04
2019-02-25T05:31:48.091Z,5.04
2019-02-25T05:32:48.072Z,4.99
2019-02-25T05:33:48.054Z,5.03
2019-02-25T05:34:48.063Z,4.96
2019-02-25T05:35:48.027Z,4.96
2019-02-25T05:36:48.009Z,4.96
2019-02-25T05:37:47.997Z,4.99
2019-02-25T05:38:47.980Z,5.03
2019-02-25T05:39:47.962Z,5.00
2019-02-25T05:40:47.946Z,4.96
2019-02-25T05:41:47.933Z,4.84
2019-02-25T05:42:47.921Z,4.86
2019-02-25T05:43:47.902Z,4.78
2019-02-25T05:44:47.886Z,4.82
2019-02-25T05:45:47.862Z,4.82
2019-02-25T05:46:47.847Z,4.84
2019-02-25T05:47:47.832Z,4.82
2019-02-25T05:48:47.817Z,4.77
2019-02-25T05:49:47.797Z,4.77
2019-02-25T05:50:49.591Z,4.75
2019-02-25T05:51:47.773Z,4.78
2019-02-25T05:52:47.756Z,4.77
2019-02-25T05:53:47.738Z,4.78
2019-02-25T05:54:47.715Z,4.78
2019-02-25T05:55:47.707Z,4.69
2019-02-25T05:56:47.690Z,4.70
2019-02-25T05:57:47.669Z,4.75
2019-02-25T05:58:47.654Z,4.69
2019-02-25T05:59:47.635Z,4.72
2019-02-25T06:00:47.617Z,4.67
2019-02-25T06:01:47.603Z,4.72
2019-02-25T06:02:47.590Z,4.67
2019-02-25T06:03:47.572Z,4.69
2019-02-25T06:04:47.555Z,4.60
2019-02-25T06:05:47.541Z,4.69
2019-02-25T06:06:47.538Z,4.73
2019-02-25T06:07:47.515Z,4.69
2019-02-25T06:08:47.488Z,4.70
2019-02-25T06:09:47.478Z,4.77
2019-02-25T06:10:47.464Z,4.72
2019-02-25T06:11:47.446Z,4.73
2019-02-25T06:12:47.423Z,4.70
2019-02-25T06:13:47.407Z,4.69
2019-02-25T06:14:47.403Z,4.77
2019-02-25T06:15:47.377Z,4.82
2019-02-25T06:16:47.359Z,4.70
2019-02-25T06:17:47.345Z,4.73
2019-02-25T06:18:47.323Z,4.70
2019-02-25T06:19:47.316Z,4.82
2019-02-25T06:20:47.300Z,4.78
2019-02-25T06:21:47.280Z,4.77
2019-02-25T06:22:47.266Z,4.84
2019-02-25T06:23:47.251Z,4.78
2019-02-25T06:24:47.228Z,4.78
2019-02-25T06:25:47.217Z,4.86
2019-02-25T06:26:47.198Z,4.89
2019-02-25T06:27:47.185Z,4.89
2019-02-25T06:28:47.168Z,4.85
2019-02-25T06:29:47.145Z,4.91
2019-02-25T06:30:47.131Z,4.94
2019-02-25T06:31:47.114Z,4.94
2019-02-25T06:32:47.108Z,4.97
2019-02-25T06:33:47.629Z,4.96
2019-02-25T06:34:47.068Z,4.97
2019-02-25T06:35:47.051Z,5.02
2019-02-25T06:36:47.035Z,5.06
2019-02-25T06:37:47.017Z,5.06
2019-02-25T06:38:46.997Z,5.07
2019-02-25T06:39:46.989Z,5.15
2019-02-25T06:40:46.971Z,5.09
2019-02-25T06:41:46.948Z,5.20
2019-02-25T06:42:46.937Z,5.17
2019-02-25T06:43:46.919Z,5.25
2019-02-25T06:44:46.903Z,5.28
2019-02-25T06:45:46.889Z,5.25
2019-02-25T06:46:46.876Z,5.15
2019-02-25T06:47:46.849Z,5.06
2019-02-25T06:48:46.835Z,5.17
2019-02-25T06:49:46.820Z,5.06
2019-02-25T06:50:46.804Z,5.09
2019-02-25T06:51:46.790Z,5.07
2019-02-25T06:52:46.776Z,5.04
2019-02-25T06:53:46.805Z,5.06
2019-02-25T06:54:46.741Z,5.04
2019-02-25T06:55:46.730Z,5.07
2019-02-25T06:56:46.710Z,4.97
2019-02-25T06:57:46.692Z,5.00
2019-02-25T06:58:46.675Z,4.99
2019-02-25T06:59:46.657Z,4.99
2019-02-25T07:00:46.645Z,4.92
2019-02-25T07:01:46.625Z,4.89
2019-02-25T07:02:46.644Z,4.96
2019-02-25T07:03:46.591Z,4.94
2019-02-25T07:04:46.579Z,4.97
2019-02-25T07:05:46.561Z,5.06
2019-02-25T07:06:46.542Z,5.09
2019-02-25T07:07:46.530Z,5.13
2019-02-25T07:08:46.512Z,5.21
2019-02-25T07:09:46.498Z,5.18
2019-02-25T07:10:46.479Z,5.17
2019-02-25T07:11:46.465Z,5.18
2019-02-25T07:12:46.440Z,5.15
2019-02-25T07:13:46.440Z,5.21
2019-02-25T07:14:47.515Z,5.17
2019-02-25T07:15:46.401Z,5.15
2019-02-25T07:16:46.390Z,5.17
2019-02-25T07:17:46.365Z,5.10
2019-02-25T07:18:46.352Z,5.13
2019-02-25T07:19:46.330Z,5.20
2019-02-25T07:20:46.325Z,5.27
2019-02-25T07:21:46.309Z,5.25
2019-02-25T07:22:46.286Z,5.18
2019-02-25T07:23:46.269Z,5.17
2019-02-25T07:24:52.611Z,5.13
2019-02-25T07:25:46.233Z,5.20
2019-02-25T07:26:46.223Z,5.24
2019-02-25T07:27:46.207Z,5.17
2019-02-25T07:28:46.192Z,5.12
2019-02-25T07:29:46.175Z,5.13
2019-02-25T07:30:46.156Z,5.10
2019-02-25T07:31:46.142Z,5.13
2019-02-25T07:32:46.125Z,5.17
2019-02-25T07:33:46.108Z,5.22
2019-02-25T07:34:46.090Z,5.24
2019-02-25T07:35:46.074Z,5.27
2019-02-25T07:36:46.059Z,5.28
2019-02-25T07:37:46.048Z,5.36
2019-02-25T07:38:46.025Z,5.30
2019-02-25T07:39:46.017Z,5.53
2019-02-25T07:40:45.993Z,5.56
2019-02-25T07:41:45.978Z,5.63
2019-02-25T07:42:45.957Z,5.76
2019-02-25T07:43:45.951Z,5.91
2019-02-25T07:44:45.935Z,5.94
2019-02-25T07:45:45.914Z,6.06
2019-02-25T07:46:45.902Z,6.19
2019-02-25T07:47:45.877Z,6.43
2019-02-25T07:48:45.871Z,6.46
2019-02-25T07:49:45.852Z,6.70
2019-02-25T07:50:47.378Z,6.80
2019-02-25T07:51:45.825Z,6.91
2019-02-25T07:52:45.802Z,6.92
2019-02-25T07:53:45.791Z,7.12
2019-02-25T07:54:45.776Z,7.24
2019-02-25T07:55:45.757Z,7.27
2019-02-25T07:56:45.742Z,7.35
2019-02-25T07:57:45.729Z,7.52
2019-02-25T07:58:45.710Z,7.64
2019-02-25T07:59:45.693Z,7.74
2019-02-25T08:00:45.678Z,7.77
2019-02-25T08:01:45.662Z,7.87
2019-02-25T08:02:45.657Z,7.95
2019-02-25T08:03:45.628Z,8.15
2019-02-25T08:04:45.620Z,8.16
2019-02-25T08:05:45.609Z,8.19
2019-02-25T08:06:45.589Z,8.36
2019-02-25T08:07:45.571Z,8.38
2019-02-25T08:08:45.553Z,8.52
2019-02-25T08:09:45.537Z,8.55
2019-02-25T08:10:45.524Z,8.58
2019-02-25T08:11:45.508Z,8.83
2019-02-25T08:12:45.499Z,8.86
2019-02-25T08:13:45.482Z,8.94
2019-02-25T08:14:45.470Z,8.99
2019-02-25T08:15:45.456Z,9.15
2019-02-25T08:16:45.432Z,9.10
2019-02-25T08:17:45.424Z,9.26
2019-02-25T08:18:45.409Z,9.40
2019-02-25T08:19:45.394Z,9.40
2019-02-25T08:20:45.378Z,9.50
2019-02-25T08:21:45.363Z,9.58
2019-02-25T08:22:45.353Z,9.58
2019-02-25T08:23:45.332Z,9.53
2019-02-25T08:24:45.324Z,9.51
2019-02-25T08:25:45.304Z,9.40
2019-02-25T08:26:45.290Z,9.39
2019-02-25T08:27:45.270Z,9.38
2019-02-25T08:28:45.262Z,9.46
2019-02-25T08:29:45.250Z,9.40
2019-02-25T08:30:45.232Z,9.54
2019-02-25T08:31:45.223Z,9.64
2019-02-25T08:32:45.212Z,9.68
2019-02-25T08:33:45.195Z,9.84
2019-02-25T08:34:45.182Z,9.89
2019-02-25T08:35:45.161Z,9.93
2019-02-25T08:36:45.147Z,9.83
2019-02-25T08:37:45.134Z,10.01
2019-02-25T08:38:45.118Z,9.97
2019-02-25T08:39:45.104Z,9.93
2019-02-25T08:40:45.086Z,10.01
2019-02-25T08:41:45.074Z,10.08
2019-02-25T08:42:45.063Z,10.18
2019-02-25T08:43:45.049Z,10.30
2019-02-25T08:44:45.039Z,10.55
2019-02-25T08:45:45.019Z,10.67
2019-02-25T08:46:45.007Z,10.70
2019-02-25T08:47:45.003Z,10.82
2019-02-25T08:48:44.981Z,10.99
2019-02-25T08:49:44.967Z,11.07
2019-02-25T08:50:44.949Z,11.17
2019-02-25T08:51:44.935Z,11.36
2019-02-25T08:52:44.921Z,11.44
2019-02-25T08:53:44.905Z,11.58
2019-02-25T08:54:44.910Z,11.64
2019-02-25T08:55:44.882Z,11.79
2019-02-25T08:56:44.866Z,11.96
2019-02-25T08:57:44.858Z,12.05
2019-02-25T08:58:44.845Z,12.09
2019-02-25T08:59:44.831Z,12.23
2019-02-25T09:00:44.814Z,12.29
2019-02-25T09:01:44.805Z,12.35
2019-02-25T09:02:44.793Z,12.46
2019-02-25T09:03:44.781Z,12.53
2019-02-25T09:04:44.763Z,12.60
2019-02-25T09:05:44.757Z,12.77
2019-02-25T09:06:44.740Z,12.85
2019-02-25T09:07:44.736Z,12.85
2019-02-25T09:08:44.718Z,12.90
2019-02-25T09:09:44.698Z,12.97
2019-02-25T09:10:44.697Z,13.04
2019-02-25T09:11:44.673Z,13.11
2019-02-25T09:12:44.679Z,13.14
2019-02-25T09:13:44.649Z,13.30
2019-02-25T09:14:44.656Z,13.41
2019-02-25T09:15:44.627Z,13.38
2019-02-25T09:16:44.615Z,13.49
2019-02-25T09:17:44.599Z,13.60
2019-02-25T09:18:44.591Z,13.64
2019-02-25T09:19:44.602Z,13.75
2019-02-25T09:20:44.568Z,13.87
2019-02-25T09:21:44.558Z,13.81
2019-02-25T09:22:44.538Z,13.91
2019-02-25T09:23:44.532Z,13.97
2019-02-25T09:24:44.519Z,14.04
2019-02-25T09:25:44.505Z,14.09
2019-02-25T09:26:44.490Z,14.12
2019-02-25T09:27:44.476Z,14.28
2019-02-25T09:28:44.462Z,14.39
2019-02-25T09:29:44.976Z,14.39
2019-02-25T09:30:44.445Z,14.45
2019-02-25T09:31:44.434Z,14.43
2019-02-25T09:32:44.424Z,14.40
2019-02-25T09:33:44.408Z,14.39
2019-02-25T09:34:44.401Z,14.28
2019-02-25T09:35:44.389Z,14.33
2019-02-25T09:36:44.378Z,14.40
2019-02-25T09:37:44.365Z,14.51
2019-02-25T09:38:44.354Z,14.57
2019-02-25T09:39:44.340Z,14.68
2019-02-25T09:40:44.329Z,14.72
2019-02-25T09:41:44.314Z,14.83
2019-02-25T09:42:44.302Z,14.91
2019-02-25T09:43:44.291Z,15.02
2019-02-25T09:44:44.286Z,15.03
2019-02-25T09:45:44.268Z,15.20
2019-02-25T09:46:44.262Z,15.28
2019-02-25T09:47:44.251Z,15.34
2019-02-25T09:48:44.239Z,15.53
2019-02-25T09:49:44.231Z,15.53
2019-02-25T09:50:44.212Z,15.59
2019-02-25T09:51:44.206Z,15.69
2019-02-25T09:52:44.197Z,15.80
2019-02-25T09:53:44.183Z,15.86
2019-02-25T09:54:44.172Z,16.09
2019-02-25T09:55:44.166Z,16.20
2019-02-25T09:56:44.150Z,16.14
2019-02-25T09:57:44.142Z,16.30
2019-02-25T09:58:44.135Z,16.30
2019-02-25T09:59:44.133Z,16.38
2019-02-25T10:00:46.053Z,16.52
2019-02-25T10:01:44.099Z,16.68
2019-02-25T10:02:44.089Z,16.78
2019-02-25T10:03:44.076Z,16.82
2019-02-25T10:04:44.077Z,16.86
2019-02-25T10:05:45.741Z,16.96
2019-02-25T10:06:44.046Z,17.08
2019-02-25T10:07:44.042Z,17.23
2019-02-25T10:08:44.068Z,17.34
2019-02-25T10:09:44.020Z,17.30
2019-02-25T10:10:44.003Z,17.38
2019-02-25T10:11:43.999Z,17.49
2019-02-25T10:12:43.989Z,17.55
2019-02-25T10:13:43.980Z,17.56
2019-02-25T10:14:43.971Z,17.70
2019-02-25T10:15:43.961Z,17.71
2019-02-25T10:16:43.962Z,17.71
2019-02-25T10:17:43.941Z,17.75
2019-02-25T10:18:43.934Z,17.82
2019-02-25T10:19:43.922Z,17.84
2019-02-25T10:20:43.917Z,17.84
2019-02-25T10:21:43.900Z,17.90
2019-02-25T10:22:43.895Z,18.10
2019-02-25T10:23:43.890Z,18.05
2019-02-25T10:24:43.872Z,18.05
2019-02-25T10:25:43.867Z,18.18
2019-02-25T10:26:43.859Z,18.17
2019-02-25T10:27:43.849Z,18.32
2019-02-25T10:28:43.842Z,18.35
2019-02-25T10:29:43.831Z,18.54
2019-02-25T10:30:52.371Z,18.54
2019-02-25T10:31:43.892Z,18.73
2019-02-25T10:32:43.804Z,18.84
2019-02-25T10:33:43.798Z,18.82
2019-02-25T10:34:43.780Z,18.92
2019-02-25T10:35:43.774Z,19.08
2019-02-25T10:36:45.645Z,19.08
2019-02-25T10:37:43.878Z,19.16
2019-02-25T10:38:43.746Z,19.29
2019-02-25T10:39:45.307Z,19.37
2019-02-25T10:40:45.328Z,19.51
2019-02-25T10:41:43.723Z,19.59
2019-02-25T10:42:43.712Z,19.50
2019-02-25T10:43:43.702Z,19.41
2019-02-25T10:44:43.692Z,19.39
2019-02-25T10:45:45.366Z,19.28
2019-02-25T10:46:44.902Z,19.23
2019-02-25T10:47:44.317Z,19.32
2019-02-25T10:48:43.664Z,19.56
2019-02-25T10:49:43.652Z,19.46
2019-02-25T10:50:43.647Z,19.68
2019-02-25T10:51:45.528Z,19.74
2019-02-25T10:52:44.915Z,19.86
2019-02-25T10:53:45.207Z,19.92
2019-02-25T10:54:43.615Z,19.88
2019-02-25T10:55:45.094Z,19.96
2019-02-25T10:56:43.595Z,20.03
2019-02-25T10:57:43.585Z,20.14
2019-02-25T10:58:43.578Z,20.29
2019-02-25T10:59:43.572Z,20.38
2019-02-25T11:00:44.364Z,20.48
2019-02-25T11:01:45.345Z,20.51
2019-02-25T11:02:44.460Z,20.70
2019-02-25T11:03:45.470Z,20.73
2019-02-25T11:04:43.534Z,20.79
2019-02-25T11:05:43.523Z,20.88
2019-02-25T11:06:43.513Z,20.92
2019-02-25T11:07:43.505Z,20.84
2019-02-25T11:08:44.108Z,20.98
2019-02-25T11:09:44.398Z,21.04
2019-02-25T11:10:44.130Z,21.06
2019-02-25T11:11:43.477Z,21.10
2019-02-25T11:12:43.467Z,21.27
2019-02-25T11:13:43.459Z,21.28
2019-02-25T11:14:43.490Z,21.28
2019-02-25T11:15:44.573Z,21.44
2019-02-25T11:16:44.069Z,21.54
2019-02-25T11:17:43.434Z,21.50
2019-02-25T11:18:43.427Z,21.52
2019-02-25T11:19:43.434Z,21.42
2019-02-25T11:20:43.408Z,21.47
2019-02-25T11:21:44.241Z,21.53
2019-02-25T11:22:44.077Z,21.58
2019-02-25T11:23:45.056Z,21.74
2019-02-25T11:24:43.379Z,21.79
2019-02-25T11:25:43.376Z,21.88
2019-02-25T11:26:43.367Z,21.80
2019-02-25T11:27:43.357Z,21.88
2019-02-25T11:28:43.818Z,21.64
2019-02-25T11:29:44.058Z,21.50
2019-02-25T11:30:45.045Z,21.25
2019-02-25T11:31:45.137Z,20.97
2019-02-25T11:32:43.322Z,20.95
2019-02-25T11:33:43.316Z,20.74
2019-02-25T11:34:43.310Z,20.55
2019-02-25T11:35:45.167Z,20.39
2019-02-25T11:36:43.301Z,20.35
2019-02-25T11:37:43.288Z,20.11
2019-02-25T11:38:43.283Z,20.08
2019-02-25T11:39:43.279Z,20.13
2019-02-25T11:40:43.269Z,20.14
2019-02-25T11:41:43.263Z,20.32
2019-02-25T11:42:43.263Z,20.47
2019-02-25T11:43:44.143Z,20.61
2019-02-25T11:44:43.238Z,20.76
2019-02-25T11:45:43.235Z,20.97
2019-02-25T11:46:43.226Z,21.17
2019-02-25T11:47:43.221Z,21.44
2019-02-25T11:48:43.207Z,21.61
2019-02-25T11:49:43.207Z,21.71
2019-02-25T11:50:44.764Z,21.62
2019-02-25T11:51:43.193Z,21.44
2019-02-25T11:52:43.181Z,21.46
2019-02-25T11:53:43.175Z,21.35
2019-02-25T11:54:43.169Z,21.09
2019-02-25T11:55:43.166Z,20.84
2019-02-25T11:56:43.156Z,20.77
2019-02-25T11:57:43.153Z,20.85
2019-02-25T11:58:43.141Z,20.95
2019-02-25T11:59:43.137Z,21.07
2019-02-25T12:00:43.135Z,21.27
2019-02-25T12:01:43.128Z,21.38
2019-02-25T12:02:43.114Z,21.47
2019-02-25T12:03:43.113Z,21.56
2019-02-25T12:04:43.096Z,21.68
2019-02-25T12:05:43.095Z,21.80
2019-02-25T12:06:43.089Z,21.83
2019-02-25T12:07:43.081Z,21.84
2019-02-25T12:08:43.073Z,21.83
2019-02-25T12:09:43.063Z,21.88
2019-02-25T12:10:43.062Z,21.99
2019-02-25T12:11:43.050Z,22.07
2019-02-25T12:12:43.046Z,22.24
2019-02-25T12:13:43.042Z,22.35
2019-02-25T12:14:43.040Z,22.36
2019-02-25T12:15:43.027Z,22.37
2019-02-25T12:16:43.025Z,22.46
2019-02-25T12:17:43.013Z,22.55
2019-02-25T12:18:43.006Z,22.72
2019-02-25T12:19:43.002Z,22.83
2019-02-25T12:20:43.000Z,22.98
2019-02-25T12:21:42.990Z,23.02
2019-02-25T12:22:42.984Z,23.02
2019-02-25T12:23:42.978Z,23.05
2019-02-25T12:24:42.966Z,23.17
2019-02-25T12:25:42.964Z,23.23
2019-02-25T12:26:42.957Z,23.27
2019-02-25T12:27:42.960Z,23.19
2019-02-25T12:28:42.948Z,23.07
2019-02-25T12:29:42.974Z,22.82
2019-02-25T12:30:42.933Z,22.70
2019-02-25T12:31:42.925Z,22.52
2019-02-25T12:32:42.923Z,22.47
2019-02-25T12:33:42.922Z,22.31
2019-02-25T12:34:42.915Z,22.18
2019-02-25T12:35:42.908Z,22.17
2019-02-25T12:36:42.902Z,22.15
2019-02-25T12:37:42.892Z,22.22
2019-02-25T12:38:42.888Z,22.33
2019-02-25T12:39:42.880Z,22.37
2019-02-25T12:40:42.872Z,22.51
2019-02-25T12:41:42.865Z,22.61
2019-02-25T12:42:42.863Z,22.77
2019-02-25T12:43:42.862Z,22.90
2019-02-25T12:44:42.853Z,23.05
2019-02-25T12:45:42.843Z,23.10
2019-02-25T12:46:42.836Z,23.15
2019-02-25T12:47:42.828Z,23.32
2019-02-25T12:48:42.823Z,23.40
2019-02-25T12:49:42.818Z,23.54
2019-02-25T12:50:42.817Z,23.73
2019-02-25T12:51:42.808Z,23.87
2019-02-25T12:52:42.798Z,23.98
2019-02-25T12:53:42.800Z,23.97
2019-02-25T12:54:42.797Z,24.06
2019-02-25T12:55:42.793Z,24.12
2019-02-25T12:56:42.785Z,24.21
2019-02-25T12:57:42.776Z,24.12
2019-02-25T12:58:42.767Z,24.27
2019-02-25T12:59:42.759Z,24.18
2019-02-25T13:00:42.750Z,24.25
2019-02-25T13:01:42.750Z,24.12
2019-02-25T13:02:42.744Z,24.02
2019-02-25T13:03:42.740Z,23.91
2019-02-25T13:04:42.731Z,23.97
2019-02-25T13:05:42.734Z,24.08
2019-02-25T13:06:42.726Z,24.06
2019-02-25T13:07:42.732Z,24.10
2019-02-25T13:08:42.711Z,24.08
2019-02-25T13:09:42.700Z,24.10